sensor_id;sensor_type;location;lat;lon;timestamp;P1;durP1;ratioP1;P2;durP2;ratioP2
59159;SDS011;44941;45.058;20.076;2022-09-17T00:01:03;9.95;;;4.32;;
59159;SDS011;44941;45.058;20.076;2022-09-17T00:03:29;7.53;;;4.70;;
59159;SDS011;44941;45.058;20.076;2022-09-17T00:06:01;7.40;;;4.85;;
59159;SDS011;44941;45.058;20.076;2022-09-17T00:08:27;10.50;;;4.80;;
59159;SDS011;44941;45.058;20.076;2022-09-17T00:10:54;10.23;;;5.00;;
59159;SDS011;44941;45.058;20.076;2022-09-17T00:13:20;8.35;;;4.95;;
59159;SDS011;44941;45.058;20.076;2022-09-17T00:15:46;9.63;;;6.00;;
59159;SDS011;44941;45.058;20.076;2022-09-17T00:18:13;8.65;;;5.72;;
59159;SDS011;44941;45.058;20.076;2022-09-17T00:20:43;13.55;;;5.57;;
59159;SDS011;44941;45.058;20.076;2022-09-17T00:23:10;9.30;;;5.82;;
59159;SDS011;44941;45.058;20.076;2022-09-17T00:25:37;11.48;;;6.43;;
59159;SDS011;44941;45.058;20.076;2022-09-17T00:28:03;10.68;;;6.38;;
59159;SDS011;44941;45.058;20.076;2022-09-17T00:30:29;15.25;;;6.18;;
59159;SDS011;44941;45.058;20.076;2022-09-17T00:32:56;9.43;;;5.18;;
59159;SDS011;44941;45.058;20.076;2022-09-17T00:35:23;9.13;;;5.43;;
59159;SDS011;44941;45.058;20.076;2022-09-17T00:37:49;10.63;;;5.50;;
59159;SDS011;44941;45.058;20.076;2022-09-17T00:40:16;10.25;;;5.75;;
59159;SDS011;44941;45.058;20.076;2022-09-17T00:42:42;9.45;;;5.45;;
59159;SDS011;44941;45.058;20.076;2022-09-17T00:45:10;10.18;;;5.93;;
59159;SDS011;44941;45.058;20.076;2022-09-17T00:47:37;33.50;;;7.15;;
59159;SDS011;44941;45.058;20.076;2022-09-17T00:52:34;8.02;;;3.17;;
59159;SDS011;44941;45.058;20.076;2022-09-17T00:55:15;9.23;;;3.47;;
59159;SDS011;44941;45.058;20.076;2022-09-17T00:57:43;13.88;;;3.58;;
59159;SDS011;44941;45.058;20.076;2022-09-17T01:00:11;7.38;;;3.60;;
59159;SDS011;44941;45.058;20.076;2022-09-17T01:02:37;8.30;;;3.08;;
59159;SDS011;44941;45.058;20.076;2022-09-17T01:05:04;6.57;;;3.42;;
59159;SDS011;44941;45.058;20.076;2022-09-17T01:07:34;7.68;;;2.92;;
59159;SDS011;44941;45.058;20.076;2022-09-17T01:10:05;5.68;;;2.88;;
59159;SDS011;44941;45.058;20.076;2022-09-17T01:22:48;7.28;;;2.67;;
59159;SDS011;44941;45.058;20.076;2022-09-17T01:25:28;5.63;;;2.28;;
59159;SDS011;44941;45.058;20.076;2022-09-17T01:33:18;5.30;;;2.63;;
59159;SDS011;44941;45.058;20.076;2022-09-17T01:35:51;8.27;;;2.50;;
59159;SDS011;44941;45.058;20.076;2022-09-17T01:38:26;7.35;;;2.35;;
59159;SDS011;44941;45.058;20.076;2022-09-17T01:43:28;5.53;;;2.70;;
59159;SDS011;44941;45.058;20.076;2022-09-17T01:46:39;6.80;;;2.22;;
59159;SDS011;44941;45.058;20.076;2022-09-17T01:48:50;5.72;;;2.47;;
59159;SDS011;44941;45.058;20.076;2022-09-17T01:51:21;5.25;;;2.13;;
59159;SDS011;44941;45.058;20.076;2022-09-17T01:53:55;10.80;;;2.17;;
59159;SDS011;44941;45.058;20.076;2022-09-17T01:56:27;8.32;;;2.63;;
59159;SDS011;44941;45.058;20.076;2022-09-17T01:59:03;6.85;;;2.05;;
59159;SDS011;44941;45.058;20.076;2022-09-17T02:01:32;6.82;;;1.90;;
59159;SDS011;44941;45.058;20.076;2022-09-17T02:04:06;3.97;;;1.85;;
59159;SDS011;44941;45.058;20.076;2022-09-17T02:06:36;6.43;;;1.85;;
59159;SDS011;44941;45.058;20.076;2022-09-17T02:09:07;9.07;;;2.13;;
59159;SDS011;44941;45.058;20.076;2022-09-17T02:11:36;4.75;;;1.88;;
59159;SDS011;44941;45.058;20.076;2022-09-17T02:14:08;3.80;;;1.63;;
59159;SDS011;44941;45.058;20.076;2022-09-17T02:16:38;4.82;;;1.83;;
59159;SDS011;44941;45.058;20.076;2022-09-17T02:19:09;5.05;;;1.83;;
59159;SDS011;44941;45.058;20.076;2022-09-17T02:24:15;3.55;;;1.50;;
59159;SDS011;44941;45.058;20.076;2022-09-17T02:26:47;4.50;;;1.40;;
59159;SDS011;44941;45.058;20.076;2022-09-17T02:29:21;5.10;;;1.35;;
59159;SDS011;44941;45.058;20.076;2022-09-17T02:31:48;5.30;;;2.58;;
59159;SDS011;44941;45.058;20.076;2022-09-17T02:34:15;2.97;;;1.20;;
59159;SDS011;44941;45.058;20.076;2022-09-17T02:36:41;4.63;;;1.60;;
59159;SDS011;44941;45.058;20.076;2022-09-17T02:39:08;3.03;;;1.00;;
59159;SDS011;44941;45.058;20.076;2022-09-17T02:41:35;4.03;;;1.60;;
59159;SDS011;44941;45.058;20.076;2022-09-17T02:44:17;3.40;;;1.30;;
59159;SDS011;44941;45.058;20.076;2022-09-17T02:49:31;3.85;;;1.40;;
59159;SDS011;44941;45.058;20.076;2022-09-17T02:54:50;5.60;;;2.17;;
59159;SDS011;44941;45.058;20.076;2022-09-17T02:57:37;4.20;;;2.03;;
59159;SDS011;44941;45.058;20.076;2022-09-17T03:00:11;6.00;;;2.33;;
59159;SDS011;44941;45.058;20.076;2022-09-17T03:05:05;5.45;;;2.10;;
59159;SDS011;44941;45.058;20.076;2022-09-17T03:07:31;5.88;;;2.35;;
59159;SDS011;44941;45.058;20.076;2022-09-17T03:09:58;4.00;;;1.92;;
59159;SDS011;44941;45.058;20.076;2022-09-17T03:12:24;5.78;;;2.70;;
59159;SDS011;44941;45.058;20.076;2022-09-17T03:14:51;5.55;;;2.20;;
59159;SDS011;44941;45.058;20.076;2022-09-17T03:17:17;5.35;;;2.42;;
59159;SDS011;44941;45.058;20.076;2022-09-17T03:19:43;7.63;;;2.50;;
59159;SDS011;44941;45.058;20.076;2022-09-17T03:22:09;5.20;;;2.10;;
59159;SDS011;44941;45.058;20.076;2022-09-17T03:24:36;5.43;;;2.58;;
59159;SDS011;44941;45.058;20.076;2022-09-17T03:27:02;7.15;;;3.10;;
59159;SDS011;44941;45.058;20.076;2022-09-17T03:29:28;6.55;;;2.80;;
59159;SDS011;44941;45.058;20.076;2022-09-17T03:31:54;8.23;;;3.40;;
59159;SDS011;44941;45.058;20.076;2022-09-17T03:34:20;8.23;;;3.17;;
59159;SDS011;44941;45.058;20.076;2022-09-17T03:36:47;7.78;;;3.72;;
59159;SDS011;44941;45.058;20.076;2022-09-17T03:39:13;6.20;;;2.95;;
59159;SDS011;44941;45.058;20.076;2022-09-17T03:41:39;6.63;;;3.22;;
59159;SDS011;44941;45.058;20.076;2022-09-17T03:44:05;7.75;;;4.05;;
59159;SDS011;44941;45.058;20.076;2022-09-17T03:46:31;7.90;;;3.25;;
59159;SDS011;44941;45.058;20.076;2022-09-17T03:48:58;6.75;;;3.40;;
59159;SDS011;44941;45.058;20.076;2022-09-17T03:51:24;7.03;;;3.35;;
59159;SDS011;44941;45.058;20.076;2022-09-17T03:53:50;7.28;;;3.75;;
59159;SDS011;44941;45.058;20.076;2022-09-17T03:56:16;7.57;;;3.45;;
59159;SDS011;44941;45.058;20.076;2022-09-17T03:58:42;9.38;;;3.58;;
59159;SDS011;44941;45.058;20.076;2022-09-17T04:01:08;6.45;;;3.45;;
59159;SDS011;44941;45.058;20.076;2022-09-17T04:03:34;7.45;;;3.95;;
59159;SDS011;44941;45.058;20.076;2022-09-17T04:06:00;8.38;;;4.07;;
59159;SDS011;44941;45.058;20.076;2022-09-17T04:08:26;7.32;;;4.30;;
59159;SDS011;44941;45.058;20.076;2022-09-17T04:10:53;10.88;;;4.07;;
59159;SDS011;44941;45.058;20.076;2022-09-17T04:13:19;9.75;;;4.53;;
59159;SDS011;44941;45.058;20.076;2022-09-17T04:15:45;9.30;;;4.13;;
59159;SDS011;44941;45.058;20.076;2022-09-17T04:18:11;8.50;;;4.20;;
59159;SDS011;44941;45.058;20.076;2022-09-17T04:20:38;7.78;;;3.92;;
59159;SDS011;44941;45.058;20.076;2022-09-17T04:23:04;7.65;;;4.28;;
59159;SDS011;44941;45.058;20.076;2022-09-17T04:25:31;11.47;;;4.50;;
59159;SDS011;44941;45.058;20.076;2022-09-17T04:27:58;8.35;;;4.72;;
59159;SDS011;44941;45.058;20.076;2022-09-17T04:30:24;8.68;;;4.97;;
59159;SDS011;44941;45.058;20.076;2022-09-17T04:32:50;9.93;;;4.63;;
59159;SDS011;44941;45.058;20.076;2022-09-17T04:35:16;9.65;;;4.40;;
59159;SDS011;44941;45.058;20.076;2022-09-17T04:37:42;8.73;;;4.97;;
59159;SDS011;44941;45.058;20.076;2022-09-17T04:40:08;8.10;;;4.40;;
59159;SDS011;44941;45.058;20.076;2022-09-17T04:42:34;9.00;;;4.80;;
59159;SDS011;44941;45.058;20.076;2022-09-17T04:45:01;10.30;;;4.50;;
59159;SDS011;44941;45.058;20.076;2022-09-17T04:47:27;8.02;;;4.55;;
59159;SDS011;44941;45.058;20.076;2022-09-17T04:49:53;8.00;;;5.07;;
59159;SDS011;44941;45.058;20.076;2022-09-17T04:52:19;7.97;;;4.90;;
59159;SDS011;44941;45.058;20.076;2022-09-17T04:54:45;7.88;;;4.80;;
59159;SDS011;44941;45.058;20.076;2022-09-17T04:57:11;10.45;;;5.10;;
59159;SDS011;44941;45.058;20.076;2022-09-17T04:59:37;10.23;;;5.03;;
59159;SDS011;44941;45.058;20.076;2022-09-17T05:02:03;8.50;;;5.00;;
59159;SDS011;44941;45.058;20.076;2022-09-17T05:04:29;9.38;;;5.45;;
59159;SDS011;44941;45.058;20.076;2022-09-17T05:06:55;11.70;;;5.38;;
59159;SDS011;44941;45.058;20.076;2022-09-17T05:09:21;8.88;;;4.80;;
59159;SDS011;44941;45.058;20.076;2022-09-17T05:11:48;8.05;;;4.80;;
59159;SDS011;44941;45.058;20.076;2022-09-17T05:14:14;10.43;;;4.95;;
59159;SDS011;44941;45.058;20.076;2022-09-17T05:16:40;8.90;;;4.78;;
59159;SDS011;44941;45.058;20.076;2022-09-17T05:19:06;7.90;;;4.50;;
59159;SDS011;44941;45.058;20.076;2022-09-17T05:21:32;9.38;;;4.35;;
59159;SDS011;44941;45.058;20.076;2022-09-17T05:23:58;8.85;;;4.57;;
59159;SDS011;44941;45.058;20.076;2022-09-17T05:26:25;9.23;;;4.05;;
59159;SDS011;44941;45.058;20.076;2022-09-17T05:28:51;10.57;;;4.65;;
59159;SDS011;44941;45.058;20.076;2022-09-17T05:31:17;9.05;;;4.35;;
59159;SDS011;44941;45.058;20.076;2022-09-17T05:33:43;8.52;;;4.25;;
59159;SDS011;44941;45.058;20.076;2022-09-17T05:36:10;8.27;;;4.63;;
59159;SDS011;44941;45.058;20.076;2022-09-17T05:38:36;9.10;;;4.45;;
59159;SDS011;44941;45.058;20.076;2022-09-17T05:41:03;8.82;;;4.28;;
59159;SDS011;44941;45.058;20.076;2022-09-17T05:43:30;8.75;;;4.20;;
59159;SDS011;44941;45.058;20.076;2022-09-17T05:45:59;6.40;;;3.92;;
59159;SDS011;44941;45.058;20.076;2022-09-17T05:48:25;9.68;;;4.63;;
59159;SDS011;44941;45.058;20.076;2022-09-17T05:50:53;8.60;;;4.38;;
59159;SDS011;44941;45.058;20.076;2022-09-17T05:53:19;8.73;;;4.43;;
59159;SDS011;44941;45.058;20.076;2022-09-17T05:55:45;8.20;;;4.15;;
59159;SDS011;44941;45.058;20.076;2022-09-17T05:58:12;6.88;;;4.20;;
59159;SDS011;44941;45.058;20.076;2022-09-17T06:00:38;10.63;;;4.20;;
59159;SDS011;44941;45.058;20.076;2022-09-17T06:03:05;11.03;;;4.43;;
59159;SDS011;44941;45.058;20.076;2022-09-17T06:05:32;6.47;;;3.67;;
59159;SDS011;44941;45.058;20.076;2022-09-17T06:07:58;6.82;;;4.05;;
59159;SDS011;44941;45.058;20.076;2022-09-17T06:10:24;7.63;;;4.07;;
59159;SDS011;44941;45.058;20.076;2022-09-17T06:12:59;8.00;;;3.92;;
59159;SDS011;44941;45.058;20.076;2022-09-17T06:15:26;8.23;;;4.05;;
59159;SDS011;44941;45.058;20.076;2022-09-17T06:17:52;8.07;;;4.17;;
59159;SDS011;44941;45.058;20.076;2022-09-17T06:20:19;7.72;;;4.07;;
59159;SDS011;44941;45.058;20.076;2022-09-17T06:22:45;9.73;;;4.32;;
59159;SDS011;44941;45.058;20.076;2022-09-17T06:25:11;8.32;;;4.50;;
59159;SDS011;44941;45.058;20.076;2022-09-17T06:27:37;7.10;;;4.53;;
59159;SDS011;44941;45.058;20.076;2022-09-17T06:30:04;8.07;;;4.30;;
59159;SDS011;44941;45.058;20.076;2022-09-17T06:32:31;8.30;;;4.60;;
59159;SDS011;44941;45.058;20.076;2022-09-17T06:34:57;9.40;;;4.70;;
59159;SDS011;44941;45.058;20.076;2022-09-17T06:37:27;10.18;;;4.63;;
59159;SDS011;44941;45.058;20.076;2022-09-17T06:39:53;8.85;;;4.32;;
59159;SDS011;44941;45.058;20.076;2022-09-17T06:42:19;8.10;;;4.82;;
59159;SDS011;44941;45.058;20.076;2022-09-17T06:44:45;8.82;;;5.00;;
59159;SDS011;44941;45.058;20.076;2022-09-17T06:47:12;10.65;;;5.13;;
59159;SDS011;44941;45.058;20.076;2022-09-17T06:49:38;9.25;;;5.00;;
59159;SDS011;44941;45.058;20.076;2022-09-17T06:52:04;8.25;;;4.63;;
59159;SDS011;44941;45.058;20.076;2022-09-17T06:54:31;10.02;;;4.25;;
59159;SDS011;44941;45.058;20.076;2022-09-17T06:56:57;7.88;;;4.40;;
59159;SDS011;44941;45.058;20.076;2022-09-17T06:59:23;8.52;;;5.05;;
59159;SDS011;44941;45.058;20.076;2022-09-17T07:01:50;8.02;;;3.97;;
59159;SDS011;44941;45.058;20.076;2022-09-17T07:04:16;8.93;;;4.32;;
59159;SDS011;44941;45.058;20.076;2022-09-17T07:06:43;11.45;;;4.35;;
59159;SDS011;44941;45.058;20.076;2022-09-17T07:09:09;9.18;;;4.03;;
59159;SDS011;44941;45.058;20.076;2022-09-17T07:11:36;7.88;;;4.25;;
59159;SDS011;44941;45.058;20.076;2022-09-17T07:14:02;8.85;;;3.90;;
59159;SDS011;44941;45.058;20.076;2022-09-17T07:16:29;7.60;;;4.10;;
59159;SDS011;44941;45.058;20.076;2022-09-17T07:19:02;6.97;;;3.85;;
59159;SDS011;44941;45.058;20.076;2022-09-17T07:21:29;5.97;;;3.28;;
59159;SDS011;44941;45.058;20.076;2022-09-17T07:23:55;6.88;;;3.58;;
59159;SDS011;44941;45.058;20.076;2022-09-17T07:26:21;6.80;;;3.88;;
59159;SDS011;44941;45.058;20.076;2022-09-17T07:28:47;6.63;;;3.42;;
59159;SDS011;44941;45.058;20.076;2022-09-17T07:31:13;5.38;;;3.45;;
59159;SDS011;44941;45.058;20.076;2022-09-17T07:33:39;7.28;;;3.78;;
59159;SDS011;44941;45.058;20.076;2022-09-17T07:36:06;9.05;;;4.00;;
59159;SDS011;44941;45.058;20.076;2022-09-17T07:38:33;7.10;;;3.97;;
59159;SDS011;44941;45.058;20.076;2022-09-17T07:41:01;6.35;;;3.78;;
59159;SDS011;44941;45.058;20.076;2022-09-17T07:43:28;6.63;;;3.42;;
59159;SDS011;44941;45.058;20.076;2022-09-17T07:45:56;5.78;;;3.08;;
59159;SDS011;44941;45.058;20.076;2022-09-17T07:48:22;6.53;;;3.78;;
59159;SDS011;44941;45.058;20.076;2022-09-17T07:50:48;6.43;;;3.35;;
59159;SDS011;44941;45.058;20.076;2022-09-17T07:53:14;6.57;;;3.55;;
59159;SDS011;44941;45.058;20.076;2022-09-17T07:55:40;7.38;;;3.63;;
59159;SDS011;44941;45.058;20.076;2022-09-17T07:58:07;6.53;;;3.70;;
59159;SDS011;44941;45.058;20.076;2022-09-17T08:00:33;7.45;;;3.83;;
59159;SDS011;44941;45.058;20.076;2022-09-17T08:02:59;6.38;;;3.38;;
59159;SDS011;44941;45.058;20.076;2022-09-17T08:05:25;7.43;;;3.63;;
59159;SDS011;44941;45.058;20.076;2022-09-17T08:07:52;11.23;;;3.55;;
59159;SDS011;44941;45.058;20.076;2022-09-17T08:10:19;6.20;;;3.30;;
59159;SDS011;44941;45.058;20.076;2022-09-17T08:12:47;6.93;;;3.35;;
59159;SDS011;44941;45.058;20.076;2022-09-17T08:15:14;6.57;;;3.33;;
59159;SDS011;44941;45.058;20.076;2022-09-17T08:17:43;6.88;;;3.20;;
59159;SDS011;44941;45.058;20.076;2022-09-17T08:20:09;6.13;;;3.40;;
59159;SDS011;44941;45.058;20.076;2022-09-17T08:22:35;8.18;;;3.55;;
59159;SDS011;44941;45.058;20.076;2022-09-17T08:25:02;6.40;;;3.60;;
59159;SDS011;44941;45.058;20.076;2022-09-17T08:27:31;6.05;;;3.50;;
59159;SDS011;44941;45.058;20.076;2022-09-17T08:29:58;9.60;;;6.15;;
59159;SDS011;44941;45.058;20.076;2022-09-17T08:32:24;11.48;;;6.82;;
59159;SDS011;44941;45.058;20.076;2022-09-17T08:34:50;9.45;;;6.00;;
59159;SDS011;44941;45.058;20.076;2022-09-17T08:37:18;7.47;;;4.30;;
59159;SDS011;44941;45.058;20.076;2022-09-17T08:39:44;6.70;;;3.78;;
59159;SDS011;44941;45.058;20.076;2022-09-17T08:42:14;7.00;;;4.00;;
59159;SDS011;44941;45.058;20.076;2022-09-17T08:44:42;6.90;;;3.88;;
59159;SDS011;44941;45.058;20.076;2022-09-17T08:49:59;7.95;;;3.95;;
59159;SDS011;44941;45.058;20.076;2022-09-17T08:57:38;7.97;;;4.03;;
59159;SDS011;44941;45.058;20.076;2022-09-17T09:00:08;6.63;;;3.75;;
59159;SDS011;44941;45.058;20.076;2022-09-17T09:02:53;8.98;;;4.40;;
59159;SDS011;44941;45.058;20.076;2022-09-17T09:05:26;6.78;;;4.15;;
59159;SDS011;44941;45.058;20.076;2022-09-17T09:07:55;5.95;;;3.28;;
59159;SDS011;44941;45.058;20.076;2022-09-17T09:10:24;7.00;;;3.70;;
59159;SDS011;44941;45.058;20.076;2022-09-17T09:12:52;6.57;;;3.80;;
59159;SDS011;44941;45.058;20.076;2022-09-17T09:15:27;6.40;;;3.55;;
59159;SDS011;44941;45.058;20.076;2022-09-17T09:17:57;6.75;;;3.35;;
59159;SDS011;44941;45.058;20.076;2022-09-17T09:20:29;7.03;;;3.25;;
59159;SDS011;44941;45.058;20.076;2022-09-17T09:23:00;6.38;;;3.33;;
59159;SDS011;44941;45.058;20.076;2022-09-17T09:25:31;5.40;;;3.20;;
59159;SDS011;44941;45.058;20.076;2022-09-17T09:28:15;6.60;;;3.13;;
59159;SDS011;44941;45.058;20.076;2022-09-17T09:33:30;6.68;;;4.32;;
59159;SDS011;44941;45.058;20.076;2022-09-17T09:35:57;6.70;;;3.92;;
59159;SDS011;44941;45.058;20.076;2022-09-17T09:38:28;6.78;;;3.97;;
59159;SDS011;44941;45.058;20.076;2022-09-17T09:41:05;6.13;;;3.42;;
59159;SDS011;44941;45.058;20.076;2022-09-17T09:43:42;6.57;;;3.33;;
59159;SDS011;44941;45.058;20.076;2022-09-17T09:46:18;7.15;;;3.60;;
59159;SDS011;44941;45.058;20.076;2022-09-17T09:59:07;7.32;;;3.55;;
59159;SDS011;44941;45.058;20.076;2022-09-17T10:01:35;5.43;;;3.10;;
59159;SDS011;44941;45.058;20.076;2022-09-17T10:04:05;5.72;;;3.13;;
59159;SDS011;44941;45.058;20.076;2022-09-17T10:06:39;5.90;;;2.90;;
59159;SDS011;44941;45.058;20.076;2022-09-17T10:11:32;6.50;;;3.45;;
59159;SDS011;44941;45.058;20.076;2022-09-17T10:16:43;6.05;;;3.28;;
59159;SDS011;44941;45.058;20.076;2022-09-17T10:19:15;5.70;;;3.40;;
59159;SDS011;44941;45.058;20.076;2022-09-17T10:21:43;7.07;;;3.50;;
59159;SDS011;44941;45.058;20.076;2022-09-17T10:26:45;7.43;;;3.33;;
59159;SDS011;44941;45.058;20.076;2022-09-17T10:29:12;11.35;;;3.97;;
59159;SDS011;44941;45.058;20.076;2022-09-17T10:31:48;5.30;;;2.80;;
59159;SDS011;44941;45.058;20.076;2022-09-17T10:34:22;4.97;;;2.97;;
59159;SDS011;44941;45.058;20.076;2022-09-17T10:36:49;5.53;;;2.85;;
59159;SDS011;44941;45.058;20.076;2022-09-17T10:41:58;6.13;;;3.15;;
59159;SDS011;44941;45.058;20.076;2022-09-17T10:44:25;8.02;;;3.35;;
59159;SDS011;44941;45.058;20.076;2022-09-17T10:46:51;5.30;;;2.88;;
59159;SDS011;44941;45.058;20.076;2022-09-17T10:51:50;8.70;;;3.70;;
59159;SDS011;44941;45.058;20.076;2022-09-17T10:54:22;6.63;;;3.53;;
59159;SDS011;44941;45.058;20.076;2022-09-17T10:56:53;9.75;;;4.50;;
59159;SDS011;44941;45.058;20.076;2022-09-17T10:59:41;6.30;;;3.30;;
59159;SDS011;44941;45.058;20.076;2022-09-17T11:07:38;5.40;;;2.97;;
59159;SDS011;44941;45.058;20.076;2022-09-17T11:15:30;8.52;;;2.70;;
59159;SDS011;44941;45.058;20.076;2022-09-17T11:18:13;5.68;;;2.90;;
59159;SDS011;44941;45.058;20.076;2022-09-17T11:20:51;5.95;;;3.25;;
59159;SDS011;44941;45.058;20.076;2022-09-17T11:25:54;5.40;;;2.45;;
59159;SDS011;44941;45.058;20.076;2022-09-17T11:33:45;7.53;;;2.88;;
59159;SDS011;44941;45.058;20.076;2022-09-17T11:36:24;5.72;;;2.70;;
59159;SDS011;44941;45.058;20.076;2022-09-17T11:38:51;4.88;;;2.80;;
59159;SDS011;44941;45.058;20.076;2022-09-17T11:41:32;4.40;;;2.38;;
59159;SDS011;44941;45.058;20.076;2022-09-17T11:46:43;8.00;;;2.20;;
59159;SDS011;44941;45.058;20.076;2022-09-17T11:51:40;4.97;;;2.40;;
59159;SDS011;44941;45.058;20.076;2022-09-17T11:56:53;4.55;;;2.22;;
59159;SDS011;44941;45.058;20.076;2022-09-17T11:59:24;4.72;;;2.17;;
59159;SDS011;44941;45.058;20.076;2022-09-17T12:02:31;4.55;;;2.20;;
59159;SDS011;44941;45.058;20.076;2022-09-17T12:09:50;4.45;;;1.95;;
59159;SDS011;44941;45.058;20.076;2022-09-17T12:12:19;5.47;;;2.17;;
59159;SDS011;44941;45.058;20.076;2022-09-17T12:14:48;4.88;;;2.10;;
59159;SDS011;44941;45.058;20.076;2022-09-17T12:20:04;4.72;;;2.20;;
59159;SDS011;44941;45.058;20.076;2022-09-17T12:22:33;4.80;;;2.20;;
59159;SDS011;44941;45.058;20.076;2022-09-17T12:25:00;4.03;;;2.10;;
59159;SDS011;44941;45.058;20.076;2022-09-17T12:27:49;6.57;;;2.20;;
59159;SDS011;44941;45.058;20.076;2022-09-17T12:30:23;4.15;;;2.17;;
59159;SDS011;44941;45.058;20.076;2022-09-17T12:35:25;4.03;;;1.65;;
59159;SDS011;44941;45.058;20.076;2022-09-17T12:43:17;3.90;;;1.67;;
59159;SDS011;44941;45.058;20.076;2022-09-17T12:45:56;5.88;;;2.20;;
59159;SDS011;44941;45.058;20.076;2022-09-17T12:53:34;4.43;;;1.90;;
59159;SDS011;44941;45.058;20.076;2022-09-17T12:56:04;4.60;;;2.35;;
59159;SDS011;44941;45.058;20.076;2022-09-17T13:03:40;6.93;;;2.97;;
59159;SDS011;44941;45.058;20.076;2022-09-17T13:11:18;9.23;;;3.20;;
59159;SDS011;44941;45.058;20.076;2022-09-17T13:14:01;6.30;;;2.53;;
59159;SDS011;44941;45.058;20.076;2022-09-17T13:21:38;7.75;;;2.63;;
59159;SDS011;44941;45.058;20.076;2022-09-17T13:24:17;4.20;;;2.10;;
59159;SDS011;44941;45.058;20.076;2022-09-17T13:26:44;6.68;;;2.00;;
59159;SDS011;44941;45.058;20.076;2022-09-17T13:29:11;4.90;;;2.05;;
59159;SDS011;44941;45.058;20.076;2022-09-17T13:36:46;4.90;;;1.92;;
59159;SDS011;44941;45.058;20.076;2022-09-17T13:42:01;5.70;;;2.00;;
59159;SDS011;44941;45.058;20.076;2022-09-17T13:44:30;4.10;;;1.88;;
59159;SDS011;44941;45.058;20.076;2022-09-17T13:49:42;5.85;;;1.90;;
59159;SDS011;44941;45.058;20.076;2022-09-17T13:52:08;5.22;;;2.03;;
59159;SDS011;44941;45.058;20.076;2022-09-17T13:54:37;4.95;;;2.20;;
59159;SDS011;44941;45.058;20.076;2022-09-17T13:57:04;4.70;;;1.90;;
59159;SDS011;44941;45.058;20.076;2022-09-17T13:59:32;5.18;;;2.42;;
59159;SDS011;44941;45.058;20.076;2022-09-17T14:02:03;6.35;;;3.30;;
59159;SDS011;44941;45.058;20.076;2022-09-17T14:04:47;7.10;;;2.83;;
59159;SDS011;44941;45.058;20.076;2022-09-17T14:09:53;7.00;;;2.42;;
59159;SDS011;44941;45.058;20.076;2022-09-17T14:12:54;7.65;;;2.92;;
59159;SDS011;44941;45.058;20.076;2022-09-17T14:17:58;6.22;;;2.67;;
59159;SDS011;44941;45.058;20.076;2022-09-17T14:20:24;6.50;;;2.70;;
59159;SDS011;44941;45.058;20.076;2022-09-17T14:22:56;7.63;;;2.78;;
59159;SDS011;44941;45.058;20.076;2022-09-17T14:25:37;5.85;;;2.80;;
59159;SDS011;44941;45.058;20.076;2022-09-17T14:28:12;5.38;;;2.75;;
59159;SDS011;44941;45.058;20.076;2022-09-17T14:30:41;8.95;;;3.83;;
59159;SDS011;44941;45.058;20.076;2022-09-17T14:33:22;6.18;;;2.85;;
59159;SDS011;44941;45.058;20.076;2022-09-17T14:35:52;6.43;;;3.33;;
59159;SDS011;44941;45.058;20.076;2022-09-17T14:38:22;7.35;;;2.97;;
59159;SDS011;44941;45.058;20.076;2022-09-17T14:40:57;6.45;;;3.03;;
59159;SDS011;44941;45.058;20.076;2022-09-17T14:43:36;7.85;;;3.15;;
59159;SDS011;44941;45.058;20.076;2022-09-17T14:46:03;7.13;;;2.95;;
59159;SDS011;44941;45.058;20.076;2022-09-17T14:48:32;6.82;;;3.42;;
59159;SDS011;44941;45.058;20.076;2022-09-17T14:56:10;6.50;;;2.78;;
59159;SDS011;44941;45.058;20.076;2022-09-17T14:58:39;4.47;;;2.70;;
59159;SDS011;44941;45.058;20.076;2022-09-17T15:01:12;8.40;;;2.75;;
59159;SDS011;44941;45.058;20.076;2022-09-17T15:03:45;6.00;;;2.65;;
59159;SDS011;44941;45.058;20.076;2022-09-17T15:06:21;4.22;;;2.00;;
59159;SDS011;44941;45.058;20.076;2022-09-17T15:08:47;4.70;;;2.10;;
59159;SDS011;44941;45.058;20.076;2022-09-17T15:11:13;5.45;;;2.00;;
59159;SDS011;44941;45.058;20.076;2022-09-17T15:13:44;6.13;;;2.10;;
59159;SDS011;44941;45.058;20.076;2022-09-17T15:18:39;4.97;;;2.00;;
59159;SDS011;44941;45.058;20.076;2022-09-17T15:21:13;3.50;;;1.67;;
59159;SDS011;44941;45.058;20.076;2022-09-17T15:23:40;5.60;;;2.05;;
59159;SDS011;44941;45.058;20.076;2022-09-17T15:26:07;5.57;;;1.90;;
59159;SDS011;44941;45.058;20.076;2022-09-17T15:28:34;4.78;;;1.98;;
59159;SDS011;44941;45.058;20.076;2022-09-17T15:31:02;4.93;;;2.22;;
59159;SDS011;44941;45.058;20.076;2022-09-17T15:33:30;4.78;;;1.90;;
59159;SDS011;44941;45.058;20.076;2022-09-17T15:36:00;4.82;;;1.80;;
59159;SDS011;44941;45.058;20.076;2022-09-17T15:38:27;4.60;;;1.65;;
59159;SDS011;44941;45.058;20.076;2022-09-17T15:40:54;3.80;;;1.55;;
59159;SDS011;44941;45.058;20.076;2022-09-17T15:43:28;4.57;;;1.90;;
59159;SDS011;44941;45.058;20.076;2022-09-17T15:45:54;4.35;;;1.95;;
59159;SDS011;44941;45.058;20.076;2022-09-17T15:50:52;5.38;;;1.88;;
59159;SDS011;44941;45.058;20.076;2022-09-17T15:53:25;4.25;;;1.85;;
59159;SDS011;44941;45.058;20.076;2022-09-17T15:56:04;4.13;;;1.70;;
59159;SDS011;44941;45.058;20.076;2022-09-17T16:08:44;4.90;;;2.00;;
59159;SDS011;44941;45.058;20.076;2022-09-17T16:11:14;4.40;;;1.67;;
59159;SDS011;44941;45.058;20.076;2022-09-17T16:13:40;5.18;;;2.10;;
59159;SDS011;44941;45.058;20.076;2022-09-17T16:16:07;4.30;;;1.80;;
59159;SDS011;44941;45.058;20.076;2022-09-17T16:18:33;6.15;;;2.28;;
59159;SDS011;44941;45.058;20.076;2022-09-17T16:20:59;7.65;;;1.90;;
59159;SDS011;44941;45.058;20.076;2022-09-17T16:23:26;4.72;;;2.10;;
59159;SDS011;44941;45.058;20.076;2022-09-17T16:25:52;8.75;;;2.13;;
59159;SDS011;44941;45.058;20.076;2022-09-17T16:28:18;5.82;;;2.97;;
59159;SDS011;44941;45.058;20.076;2022-09-17T16:30:45;6.00;;;2.60;;
59159;SDS011;44941;45.058;20.076;2022-09-17T16:33:12;4.97;;;2.55;;
59159;SDS011;44941;45.058;20.076;2022-09-17T16:35:39;5.75;;;2.47;;
59159;SDS011;44941;45.058;20.076;2022-09-17T16:38:05;6.47;;;3.00;;
59159;SDS011;44941;45.058;20.076;2022-09-17T16:40:32;4.90;;;2.60;;
59159;SDS011;44941;45.058;20.076;2022-09-17T16:42:58;5.15;;;2.78;;
59159;SDS011;44941;45.058;20.076;2022-09-17T16:45:26;4.82;;;2.40;;
59159;SDS011;44941;45.058;20.076;2022-09-17T16:47:52;5.47;;;2.30;;
59159;SDS011;44941;45.058;20.076;2022-09-17T16:50:18;3.88;;;1.95;;
59159;SDS011;44941;45.058;20.076;2022-09-17T16:52:44;6.18;;;2.40;;
59159;SDS011;44941;45.058;20.076;2022-09-17T16:55:13;4.57;;;2.28;;
59159;SDS011;44941;45.058;20.076;2022-09-17T16:57:39;3.63;;;1.88;;
59159;SDS011;44941;45.058;20.076;2022-09-17T17:00:06;4.90;;;2.47;;
59159;SDS011;44941;45.058;20.076;2022-09-17T17:02:41;4.78;;;2.13;;
59159;SDS011;44941;45.058;20.076;2022-09-17T17:05:08;5.07;;;2.03;;
59159;SDS011;44941;45.058;20.076;2022-09-17T17:07:35;4.97;;;2.20;;
59159;SDS011;44941;45.058;20.076;2022-09-17T17:10:02;5.32;;;2.08;;
59159;SDS011;44941;45.058;20.076;2022-09-17T17:12:28;6.03;;;2.28;;
59159;SDS011;44941;45.058;20.076;2022-09-17T17:14:55;5.95;;;2.22;;
59159;SDS011;44941;45.058;20.076;2022-09-17T17:17:21;7.25;;;2.50;;
59159;SDS011;44941;45.058;20.076;2022-09-17T17:19:47;5.07;;;2.60;;
59159;SDS011;44941;45.058;20.076;2022-09-17T17:22:13;4.28;;;2.20;;
59159;SDS011;44941;45.058;20.076;2022-09-17T17:24:39;4.85;;;2.15;;
59159;SDS011;44941;45.058;20.076;2022-09-17T17:27:06;4.60;;;2.22;;